CET,Max TemperatureF,Mean TemperatureF,Min TemperatureF,Max Dew PointF,MeanDew PointF,Min DewpointF,Max Humidity, Mean Humidity, Min Humidity, Max Sea Level PressureIn, Mean Sea Level PressureIn, Min Sea Level PressureIn, Max VisibilityMiles, Mean VisibilityMiles, Min VisibilityMiles, Max Wind SpeedMPH, Mean Wind SpeedMPH, Max Gust SpeedMPH,PrecipitationIn, CloudCover, Events, WindDirDegrees
2013-2-1,39,36,33,36,33,32,100,87,81,29.90,29.62,29.21,19,7,3,23,13,26,0.01,7,Rain-Snow,214
2013-2-2,34,30,26,37,29,23,100,88,75,29.82,29.45,29.15,19,7,1,16,8,29,0.03,7,Rain-Snow,298
2013-2-3,31,28,26,30,26,21,98,83,64,30.03,29.88,29.74,19,6,1,24,9,34,0.01,8,Rain-Snow,260
2013-2-4,37,32,28,36,31,27,100,93,86,29.83,29.76,29.68,11,4,0,23,15,24,0.08,7,Rain-Snow,234
2013-2-5,37,34,30,34,30,27,97,87,70,29.83,29.56,29.44,19,6,1,26,13,40,0.08,6,Rain-Snow,224
2013-2-6,33,28,24,28,25,21,100,87,60,29.63,29.48,29.42,19,6,0,15,7,,0.00,6,Rain-Snow,208
2013-2-7,31,26,21,28,23,19,99,86,69,29.88,29.69,29.53,14,6,0,13,6,,0.02,6,Fog-Snow,259
2013-2-8,28,24,20,25,21,18,100,87,71,29.98,29.83,29.74,12,4,0,10,6,,0.08,7,Snow,247
2013-2-9,30,24,18,22,19,16,100,85,64,30.11,29.98,29.86,19,5,1,9,5,,0.01,7,Rain-Snow,345
2013-2-10,27,18,10,25,16,7,100,83,54,30.10,29.94,29.74,19,4,0,7,3,,0.00,6,Fog-Snow,149
2013-2-11,25,19,13,20,15,9,89,76,65,29.91,29.69,29.62,14,6,3,18,9,,0.00,7,,102
2013-2-12,23,22,21,22,19,16,97,85,74,30.00,29.78,29.65,6,3,1,13,8,,0.00,8,Snow,25
2013-2-13,25,24,22,23,21,18,98,89,73,30.38,30.13,29.92,6,2,1,9,6,,0.00,8,Rain-Snow,359
2013-2-14,28,26,23,25,20,18,94,76,64,30.38,30.16,29.98,9,5,1,9,4,,0.00,8,Rain-Snow,156
2013-2-15,34,28,21,26,21,16,94,77,54,30.20,30.03,29.92,6,3,1,12,6,,0.00,7,Snow,199
2013-2-16,34,30,27,32,29,25,100,91,81,30.26,30.17,30.09,3,2,0,7,4,,0.02,8,Snow,239
2013-2-17,31,30,28,31,29,27,100,92,80,30.28,30.19,30.15,3,1,0,7,4,,0.01,8,Fog-Rain-Snow,20
2013-2-18,30,28,27,28,24,21,99,83,69,30.25,30.12,30.04,6,4,0,7,4,,0.00,8,Fog-Rain-Snow,3
2013-2-19,30,27,24,30,25,21,98,85,74,30.13,29.93,29.83,8,4,0,16,8,,0.08,8,Rain-Snow,274
2013-2-20,25,23,21,23,21,18,95,88,72,30.23,30.08,29.95,11,5,0,11,7,,0.08,7,Snow,357
2013-2-21,22,18,15,19,15,12,96,84,68,30.23,30.08,29.98,9,4,1,14,6,,0.00,6,Snow,23
2013-2-22,21,18,14,18,15,12,96,86,68,30.14,29.91,29.80,6,2,1,18,11,,0.00,8,Snow,28
2013-2-23,21,19,17,21,18,16,99,90,86,29.93,29.78,29.71,4,1,0,15,11,,0.20,8,Fog-Snow,12
2013-2-24,28,24,20,28,24,19,100,93,86,30.00,29.84,29.74,4,1,0,10,5,,0.08,8,Fog-Rain-Snow,9
2013-2-25,32,30,27,31,29,27,100,94,87,30.29,30.04,29.89,2,1,0,10,7,,0.12,8,Fog-Rain-Snow,18
2013-2-26,31,30,28,31,29,27,100,96,93,30.46,30.31,30.21,2,0,0,14,8,,0.00,8,Fog-Rain-Snow,18
2013-2-27,29,28,26,29,27,25,100,95,93,30.48,30.37,30.33,6,1,0,12,8,,0.00,8,Fog-Rain-Snow,24
2013-2-28,30,29,28,31,29,27,100,94,87,30.45,30.28,30.18,4,2,0,5,3,,0.00,8,Fog-Rain-Snow,25